sensor_id;sensor_type;location;lat;lon;timestamp;P1;durP1;ratioP1;P2;durP2;ratioP2
20844;SDS011;10583;49.084;8.646;2023-06-14T00:01:55;4.10;;;4.10;;
20844;SDS011;10583;49.084;8.646;2023-06-14T00:04:23;4.20;;;4.20;;
20844;SDS011;10583;49.084;8.646;2023-06-14T00:06:50;3.90;;;3.90;;
20844;SDS011;10583;49.084;8.646;2023-06-14T00:09:17;3.87;;;3.87;;
20844;SDS011;10583;49.084;8.646;2023-06-14T00:11:46;4.00;;;4.00;;
20844;SDS011;10583;49.084;8.646;2023-06-14T00:14:13;3.93;;;3.93;;
20844;SDS011;10583;49.084;8.646;2023-06-14T00:16:40;3.90;;;3.90;;
20844;SDS011;10583;49.084;8.646;2023-06-14T00:19:07;4.60;;;4.60;;
20844;SDS011;10583;49.084;8.646;2023-06-14T00:21:35;3.87;;;3.87;;
20844;SDS011;10583;49.084;8.646;2023-06-14T00:24:03;3.80;;;3.80;;
20844;SDS011;10583;49.084;8.646;2023-06-14T00:26:30;4.23;;;4.23;;
20844;SDS011;10583;49.084;8.646;2023-06-14T00:28:58;3.80;;;3.80;;
20844;SDS011;10583;49.084;8.646;2023-06-14T00:31:25;4.37;;;4.37;;
20844;SDS011;10583;49.084;8.646;2023-06-14T00:33:52;4.10;;;4.10;;
20844;SDS011;10583;49.084;8.646;2023-06-14T00:36:19;3.97;;;3.97;;
20844;SDS011;10583;49.084;8.646;2023-06-14T00:38:46;4.13;;;4.13;;
20844;SDS011;10583;49.084;8.646;2023-06-14T00:41:13;4.20;;;4.20;;
20844;SDS011;10583;49.084;8.646;2023-06-14T00:43:40;4.07;;;4.07;;
20844;SDS011;10583;49.084;8.646;2023-06-14T00:46:08;4.47;;;4.47;;
20844;SDS011;10583;49.084;8.646;2023-06-14T00:48:35;4.33;;;4.33;;
20844;SDS011;10583;49.084;8.646;2023-06-14T00:51:03;4.10;;;4.10;;
20844;SDS011;10583;49.084;8.646;2023-06-14T00:53:30;4.13;;;4.13;;
20844;SDS011;10583;49.084;8.646;2023-06-14T00:55:59;4.00;;;4.00;;
20844;SDS011;10583;49.084;8.646;2023-06-14T00:58:26;3.87;;;3.87;;
20844;SDS011;10583;49.084;8.646;2023-06-14T01:00:55;4.03;;;4.03;;
20844;SDS011;10583;49.084;8.646;2023-06-14T01:03:25;4.17;;;4.17;;
20844;SDS011;10583;49.084;8.646;2023-06-14T01:05:56;3.97;;;3.97;;
20844;SDS011;10583;49.084;8.646;2023-06-14T01:08:31;4.63;;;4.63;;
20844;SDS011;10583;49.084;8.646;2023-06-14T01:11:11;4.73;;;4.73;;
20844;SDS011;10583;49.084;8.646;2023-06-14T01:13:43;4.73;;;4.73;;
20844;SDS011;10583;49.084;8.646;2023-06-14T01:16:12;4.23;;;4.23;;
20844;SDS011;10583;49.084;8.646;2023-06-14T01:18:42;4.07;;;4.07;;
20844;SDS011;10583;49.084;8.646;2023-06-14T01:21:19;4.80;;;4.80;;
20844;SDS011;10583;49.084;8.646;2023-06-14T01:23:48;4.23;;;4.23;;
20844;SDS011;10583;49.084;8.646;2023-06-14T01:26:18;5.20;;;5.20;;
20844;SDS011;10583;49.084;8.646;2023-06-14T01:28:45;4.40;;;4.40;;
20844;SDS011;10583;49.084;8.646;2023-06-14T01:31:16;4.53;;;4.53;;
20844;SDS011;10583;49.084;8.646;2023-06-14T01:33:44;4.23;;;4.23;;
20844;SDS011;10583;49.084;8.646;2023-06-14T01:36:12;4.57;;;4.57;;
20844;SDS011;10583;49.084;8.646;2023-06-14T01:38:39;4.07;;;4.07;;
20844;SDS011;10583;49.084;8.646;2023-06-14T01:41:09;4.37;;;4.37;;
20844;SDS011;10583;49.084;8.646;2023-06-14T01:43:37;4.23;;;4.23;;
20844;SDS011;10583;49.084;8.646;2023-06-14T01:46:05;4.10;;;4.10;;
20844;SDS011;10583;49.084;8.646;2023-06-14T01:48:34;4.87;;;4.87;;
20844;SDS011;10583;49.084;8.646;2023-06-14T01:51:01;4.60;;;4.60;;
20844;SDS011;10583;49.084;8.646;2023-06-14T01:53:28;4.43;;;4.43;;
20844;SDS011;10583;49.084;8.646;2023-06-14T01:55:55;4.27;;;4.27;;
20844;SDS011;10583;49.084;8.646;2023-06-14T01:58:23;4.37;;;4.37;;
20844;SDS011;10583;49.084;8.646;2023-06-14T02:00:51;4.00;;;4.00;;
20844;SDS011;10583;49.084;8.646;2023-06-14T02:03:20;4.47;;;4.47;;
20844;SDS011;10583;49.084;8.646;2023-06-14T02:05:48;4.33;;;4.33;;
20844;SDS011;10583;49.084;8.646;2023-06-14T02:08:15;4.57;;;4.57;;
20844;SDS011;10583;49.084;8.646;2023-06-14T02:10:42;4.03;;;4.03;;
20844;SDS011;10583;49.084;8.646;2023-06-14T02:13:09;4.30;;;4.30;;
20844;SDS011;10583;49.084;8.646;2023-06-14T02:15:38;4.70;;;4.70;;
20844;SDS011;10583;49.084;8.646;2023-06-14T02:18:05;4.40;;;4.40;;
20844;SDS011;10583;49.084;8.646;2023-06-14T02:20:32;4.10;;;4.10;;
20844;SDS011;10583;49.084;8.646;2023-06-14T02:22:59;4.40;;;4.40;;
20844;SDS011;10583;49.084;8.646;2023-06-14T02:25:26;4.27;;;4.27;;
20844;SDS011;10583;49.084;8.646;2023-06-14T02:27:53;4.37;;;4.37;;
20844;SDS011;10583;49.084;8.646;2023-06-14T02:30:21;4.97;;;4.97;;
20844;SDS011;10583;49.084;8.646;2023-06-14T02:32:49;4.80;;;4.80;;
20844;SDS011;10583;49.084;8.646;2023-06-14T02:35:18;5.23;;;5.23;;
20844;SDS011;10583;49.084;8.646;2023-06-14T02:37:47;4.60;;;4.60;;
20844;SDS011;10583;49.084;8.646;2023-06-14T02:40:14;4.90;;;4.90;;
20844;SDS011;10583;49.084;8.646;2023-06-14T02:42:41;4.37;;;4.37;;
20844;SDS011;10583;49.084;8.646;2023-06-14T02:45:08;5.17;;;5.17;;
20844;SDS011;10583;49.084;8.646;2023-06-14T02:47:35;4.67;;;4.67;;
20844;SDS011;10583;49.084;8.646;2023-06-14T02:50:03;4.40;;;4.40;;
20844;SDS011;10583;49.084;8.646;2023-06-14T02:52:30;4.97;;;4.97;;
20844;SDS011;10583;49.084;8.646;2023-06-14T02:54:58;4.23;;;4.23;;
20844;SDS011;10583;49.084;8.646;2023-06-14T02:57:25;4.80;;;4.80;;
20844;SDS011;10583;49.084;8.646;2023-06-14T02:59:51;4.73;;;4.73;;
20844;SDS011;10583;49.084;8.646;2023-06-14T03:02:18;5.00;;;5.00;;
20844;SDS011;10583;49.084;8.646;2023-06-14T03:04:45;4.77;;;4.77;;
20844;SDS011;10583;49.084;8.646;2023-06-14T03:07:13;4.77;;;4.77;;
20844;SDS011;10583;49.084;8.646;2023-06-14T03:09:44;5.10;;;5.10;;
20844;SDS011;10583;49.084;8.646;2023-06-14T03:12:12;5.00;;;5.00;;
20844;SDS011;10583;49.084;8.646;2023-06-14T03:14:38;4.70;;;4.70;;
20844;SDS011;10583;49.084;8.646;2023-06-14T03:17:05;4.30;;;4.30;;
20844;SDS011;10583;49.084;8.646;2023-06-14T03:19:33;5.03;;;5.03;;
20844;SDS011;10583;49.084;8.646;2023-06-14T03:22:00;4.73;;;4.73;;
20844;SDS011;10583;49.084;8.646;2023-06-14T03:24:28;4.77;;;4.77;;
20844;SDS011;10583;49.084;8.646;2023-06-14T03:27:01;5.03;;;5.03;;
20844;SDS011;10583;49.084;8.646;2023-06-14T03:29:28;4.90;;;4.90;;
20844;SDS011;10583;49.084;8.646;2023-06-14T03:31:58;5.00;;;5.00;;
20844;SDS011;10583;49.084;8.646;2023-06-14T03:34:26;5.00;;;5.00;;
20844;SDS011;10583;49.084;8.646;2023-06-14T03:36:52;4.63;;;4.63;;
20844;SDS011;10583;49.084;8.646;2023-06-14T03:39:19;4.70;;;4.70;;
20844;SDS011;10583;49.084;8.646;2023-06-14T03:41:47;4.83;;;4.83;;
20844;SDS011;10583;49.084;8.646;2023-06-14T03:44:15;4.53;;;4.53;;
20844;SDS011;10583;49.084;8.646;2023-06-14T03:46:42;4.70;;;4.70;;
20844;SDS011;10583;49.084;8.646;2023-06-14T03:49:10;4.63;;;4.63;;
20844;SDS011;10583;49.084;8.646;2023-06-14T03:51:37;5.10;;;5.10;;
20844;SDS011;10583;49.084;8.646;2023-06-14T03:54:04;5.20;;;5.20;;
20844;SDS011;10583;49.084;8.646;2023-06-14T03:56:31;5.37;;;5.37;;
20844;SDS011;10583;49.084;8.646;2023-06-14T03:58:59;5.60;;;5.60;;
20844;SDS011;10583;49.084;8.646;2023-06-14T04:01:26;5.30;;;5.30;;
20844;SDS011;10583;49.084;8.646;2023-06-14T04:03:55;5.23;;;5.23;;
20844;SDS011;10583;49.084;8.646;2023-06-14T04:06:22;5.03;;;5.03;;
20844;SDS011;10583;49.084;8.646;2023-06-14T04:08:50;5.37;;;5.37;;
20844;SDS011;10583;49.084;8.646;2023-06-14T04:11:17;5.30;;;5.30;;
20844;SDS011;10583;49.084;8.646;2023-06-14T04:13:44;5.97;;;5.97;;
20844;SDS011;10583;49.084;8.646;2023-06-14T04:16:13;4.97;;;4.97;;
20844;SDS011;10583;49.084;8.646;2023-06-14T04:18:40;5.50;;;5.50;;
20844;SDS011;10583;49.084;8.646;2023-06-14T04:21:06;5.40;;;5.40;;
20844;SDS011;10583;49.084;8.646;2023-06-14T04:23:33;4.70;;;4.70;;
20844;SDS011;10583;49.084;8.646;2023-06-14T04:26:00;5.13;;;5.13;;
20844;SDS011;10583;49.084;8.646;2023-06-14T04:28:27;5.20;;;5.20;;
20844;SDS011;10583;49.084;8.646;2023-06-14T04:30:55;5.53;;;5.53;;
20844;SDS011;10583;49.084;8.646;2023-06-14T04:33:23;5.07;;;5.07;;
20844;SDS011;10583;49.084;8.646;2023-06-14T04:35:50;5.60;;;5.60;;
20844;SDS011;10583;49.084;8.646;2023-06-14T04:38:18;5.43;;;5.43;;
20844;SDS011;10583;49.084;8.646;2023-06-14T04:40:49;5.20;;;5.20;;
20844;SDS011;10583;49.084;8.646;2023-06-14T04:43:17;4.73;;;4.73;;
20844;SDS011;10583;49.084;8.646;2023-06-14T04:45:52;5.30;;;5.30;;
20844;SDS011;10583;49.084;8.646;2023-06-14T04:48:19;4.73;;;4.73;;
20844;SDS011;10583;49.084;8.646;2023-06-14T04:50:48;5.17;;;5.17;;
20844;SDS011;10583;49.084;8.646;2023-06-14T04:53:17;5.00;;;5.00;;
20844;SDS011;10583;49.084;8.646;2023-06-14T04:55:46;5.07;;;5.07;;
20844;SDS011;10583;49.084;8.646;2023-06-14T04:58:13;5.17;;;5.17;;
20844;SDS011;10583;49.084;8.646;2023-06-14T05:00:40;4.60;;;4.60;;
20844;SDS011;10583;49.084;8.646;2023-06-14T05:03:08;5.20;;;5.20;;
20844;SDS011;10583;49.084;8.646;2023-06-14T05:05:38;5.23;;;5.23;;
20844;SDS011;10583;49.084;8.646;2023-06-14T05:08:06;5.40;;;5.40;;
20844;SDS011;10583;49.084;8.646;2023-06-14T05:10:34;5.23;;;5.23;;
20844;SDS011;10583;49.084;8.646;2023-06-14T05:13:01;5.30;;;5.30;;
20844;SDS011;10583;49.084;8.646;2023-06-14T05:15:28;5.10;;;5.10;;
20844;SDS011;10583;49.084;8.646;2023-06-14T05:17:55;5.27;;;5.27;;
20844;SDS011;10583;49.084;8.646;2023-06-14T05:20:22;4.77;;;4.77;;
20844;SDS011;10583;49.084;8.646;2023-06-14T05:22:49;4.57;;;4.57;;
20844;SDS011;10583;49.084;8.646;2023-06-14T05:25:19;5.30;;;5.30;;
20844;SDS011;10583;49.084;8.646;2023-06-14T05:27:46;5.10;;;5.10;;
20844;SDS011;10583;49.084;8.646;2023-06-14T05:30:13;4.80;;;4.80;;
20844;SDS011;10583;49.084;8.646;2023-06-14T05:32:41;5.47;;;5.47;;
20844;SDS011;10583;49.084;8.646;2023-06-14T05:35:08;4.57;;;4.57;;
20844;SDS011;10583;49.084;8.646;2023-06-14T05:37:35;4.40;;;4.40;;
20844;SDS011;10583;49.084;8.646;2023-06-14T05:40:04;4.87;;;4.87;;
20844;SDS011;10583;49.084;8.646;2023-06-14T05:42:36;5.10;;;5.10;;
20844;SDS011;10583;49.084;8.646;2023-06-14T05:45:03;5.00;;;5.00;;
20844;SDS011;10583;49.084;8.646;2023-06-14T05:47:31;4.80;;;4.80;;
20844;SDS011;10583;49.084;8.646;2023-06-14T05:49:58;4.77;;;4.77;;
20844;SDS011;10583;49.084;8.646;2023-06-14T05:52:25;4.43;;;4.43;;
20844;SDS011;10583;49.084;8.646;2023-06-14T05:54:53;4.70;;;4.70;;
20844;SDS011;10583;49.084;8.646;2023-06-14T05:57:19;4.83;;;4.83;;
20844;SDS011;10583;49.084;8.646;2023-06-14T05:59:47;5.03;;;5.03;;
20844;SDS011;10583;49.084;8.646;2023-06-14T06:02:15;5.00;;;5.00;;
20844;SDS011;10583;49.084;8.646;2023-06-14T06:04:42;4.93;;;4.93;;
20844;SDS011;10583;49.084;8.646;2023-06-14T06:07:08;4.50;;;4.50;;
20844;SDS011;10583;49.084;8.646;2023-06-14T06:09:35;5.37;;;5.37;;
20844;SDS011;10583;49.084;8.646;2023-06-14T06:12:02;4.67;;;4.67;;
20844;SDS011;10583;49.084;8.646;2023-06-14T06:14:29;4.73;;;4.73;;
20844;SDS011;10583;49.084;8.646;2023-06-14T06:16:57;4.30;;;4.30;;
20844;SDS011;10583;49.084;8.646;2023-06-14T06:19:23;4.80;;;4.80;;
20844;SDS011;10583;49.084;8.646;2023-06-14T06:21:50;4.57;;;4.57;;
20844;SDS011;10583;49.084;8.646;2023-06-14T06:24:17;5.00;;;5.00;;
20844;SDS011;10583;49.084;8.646;2023-06-14T06:26:43;4.93;;;4.93;;
20844;SDS011;10583;49.084;8.646;2023-06-14T06:29:10;4.43;;;4.43;;
20844;SDS011;10583;49.084;8.646;2023-06-14T06:31:37;4.10;;;4.10;;
20844;SDS011;10583;49.084;8.646;2023-06-14T06:34:05;4.60;;;4.60;;
20844;SDS011;10583;49.084;8.646;2023-06-14T06:36:31;4.90;;;4.90;;
20844;SDS011;10583;49.084;8.646;2023-06-14T06:38:58;4.28;;;4.28;;
20844;SDS011;10583;49.084;8.646;2023-06-14T06:41:25;4.75;;;4.75;;
20844;SDS011;10583;49.084;8.646;2023-06-14T06:43:52;4.50;;;4.50;;
20844;SDS011;10583;49.084;8.646;2023-06-14T06:46:18;4.30;;;4.30;;
20844;SDS011;10583;49.084;8.646;2023-06-14T06:48:45;4.35;;;4.35;;
20844;SDS011;10583;49.084;8.646;2023-06-14T06:51:13;4.50;;;4.50;;
20844;SDS011;10583;49.084;8.646;2023-06-14T06:53:41;4.22;;;4.22;;
20844;SDS011;10583;49.084;8.646;2023-06-14T06:56:08;4.18;;;4.18;;
20844;SDS011;10583;49.084;8.646;2023-06-14T06:58:35;4.35;;;4.35;;
20844;SDS011;10583;49.084;8.646;2023-06-14T07:01:02;4.53;;;4.53;;
20844;SDS011;10583;49.084;8.646;2023-06-14T07:03:28;4.70;;;4.70;;
20844;SDS011;10583;49.084;8.646;2023-06-14T07:05:55;4.32;;;4.32;;
20844;SDS011;10583;49.084;8.646;2023-06-14T07:08:23;4.57;;;4.57;;
20844;SDS011;10583;49.084;8.646;2023-06-14T07:10:50;4.32;;;4.32;;
20844;SDS011;10583;49.084;8.646;2023-06-14T07:13:17;4.03;;;4.03;;
20844;SDS011;10583;49.084;8.646;2023-06-14T07:15:44;4.22;;;4.22;;
20844;SDS011;10583;49.084;8.646;2023-06-14T07:18:11;4.55;;;4.55;;
20844;SDS011;10583;49.084;8.646;2023-06-14T07:20:38;4.60;;;4.60;;
20844;SDS011;10583;49.084;8.646;2023-06-14T07:23:05;4.28;;;4.28;;
20844;SDS011;10583;49.084;8.646;2023-06-14T07:25:39;3.78;;;3.78;;
20844;SDS011;10583;49.084;8.646;2023-06-14T07:28:06;3.88;;;3.88;;
20844;SDS011;10583;49.084;8.646;2023-06-14T07:30:33;4.38;;;4.38;;
20844;SDS011;10583;49.084;8.646;2023-06-14T07:32:59;4.05;;;4.05;;
20844;SDS011;10583;49.084;8.646;2023-06-14T07:35:27;4.18;;;4.18;;
20844;SDS011;10583;49.084;8.646;2023-06-14T07:37:55;4.40;;;4.40;;
20844;SDS011;10583;49.084;8.646;2023-06-14T07:40:22;4.45;;;4.45;;
20844;SDS011;10583;49.084;8.646;2023-06-14T07:42:51;3.83;;;3.83;;
20844;SDS011;10583;49.084;8.646;2023-06-14T07:45:19;4.15;;;4.15;;
20844;SDS011;10583;49.084;8.646;2023-06-14T07:47:46;3.95;;;3.95;;
20844;SDS011;10583;49.084;8.646;2023-06-14T07:50:13;3.85;;;3.85;;
20844;SDS011;10583;49.084;8.646;2023-06-14T07:52:40;3.85;;;3.85;;
20844;SDS011;10583;49.084;8.646;2023-06-14T07:55:07;3.83;;;3.83;;
20844;SDS011;10583;49.084;8.646;2023-06-14T07:57:34;4.07;;;4.07;;
20844;SDS011;10583;49.084;8.646;2023-06-14T08:00:03;4.03;;;4.03;;
20844;SDS011;10583;49.084;8.646;2023-06-14T08:02:32;3.83;;;3.83;;
20844;SDS011;10583;49.084;8.646;2023-06-14T08:04:58;4.00;;;4.00;;
20844;SDS011;10583;49.084;8.646;2023-06-14T08:07:25;3.60;;;3.60;;
20844;SDS011;10583;49.084;8.646;2023-06-14T08:09:52;3.80;;;3.80;;
20844;SDS011;10583;49.084;8.646;2023-06-14T08:12:18;3.72;;;3.72;;
20844;SDS011;10583;49.084;8.646;2023-06-14T08:14:45;4.05;;;4.05;;
20844;SDS011;10583;49.084;8.646;2023-06-14T08:17:13;3.90;;;3.90;;
20844;SDS011;10583;49.084;8.646;2023-06-14T08:19:40;3.97;;;3.97;;
20844;SDS011;10583;49.084;8.646;2023-06-14T08:22:07;3.80;;;3.80;;
20844;SDS011;10583;49.084;8.646;2023-06-14T08:24:37;3.55;;;3.55;;
20844;SDS011;10583;49.084;8.646;2023-06-14T08:27:04;3.50;;;3.50;;
20844;SDS011;10583;49.084;8.646;2023-06-14T08:29:31;3.60;;;3.60;;
20844;SDS011;10583;49.084;8.646;2023-06-14T08:31:58;3.47;;;3.47;;
20844;SDS011;10583;49.084;8.646;2023-06-14T08:34:26;3.78;;;3.78;;
20844;SDS011;10583;49.084;8.646;2023-06-14T08:36:53;3.92;;;3.92;;
20844;SDS011;10583;49.084;8.646;2023-06-14T08:39:20;3.58;;;3.58;;
20844;SDS011;10583;49.084;8.646;2023-06-14T08:41:47;3.67;;;3.67;;
20844;SDS011;10583;49.084;8.646;2023-06-14T08:44:14;3.70;;;3.70;;
20844;SDS011;10583;49.084;8.646;2023-06-14T08:46:41;3.75;;;3.75;;
20844;SDS011;10583;49.084;8.646;2023-06-14T08:49:08;3.80;;;3.80;;
20844;SDS011;10583;49.084;8.646;2023-06-14T08:51:39;3.80;;;3.80;;
20844;SDS011;10583;49.084;8.646;2023-06-14T08:54:06;3.65;;;3.65;;
20844;SDS011;10583;49.084;8.646;2023-06-14T08:56:34;3.65;;;3.65;;
20844;SDS011;10583;49.084;8.646;2023-06-14T08:59:04;4.05;;;4.05;;
20844;SDS011;10583;49.084;8.646;2023-06-14T09:01:34;3.42;;;3.42;;
20844;SDS011;10583;49.084;8.646;2023-06-14T09:04:01;3.70;;;3.70;;
20844;SDS011;10583;49.084;8.646;2023-06-14T09:06:30;3.40;;;3.40;;
20844;SDS011;10583;49.084;8.646;2023-06-14T09:08:59;4.20;;;4.20;;
20844;SDS011;10583;49.084;8.646;2023-06-14T09:11:26;3.55;;;3.55;;
20844;SDS011;10583;49.084;8.646;2023-06-14T09:13:52;3.47;;;3.47;;
20844;SDS011;10583;49.084;8.646;2023-06-14T09:16:19;3.10;;;3.10;;
20844;SDS011;10583;49.084;8.646;2023-06-14T09:18:46;3.30;;;3.30;;
20844;SDS011;10583;49.084;8.646;2023-06-14T09:21:14;3.47;;;3.47;;
20844;SDS011;10583;49.084;8.646;2023-06-14T09:23:42;3.72;;;3.72;;
20844;SDS011;10583;49.084;8.646;2023-06-14T09:26:11;3.80;;;3.80;;
20844;SDS011;10583;49.084;8.646;2023-06-14T09:28:41;3.75;;;3.75;;
20844;SDS011;10583;49.084;8.646;2023-06-14T09:31:09;3.40;;;3.40;;
20844;SDS011;10583;49.084;8.646;2023-06-14T09:33:36;3.67;;;3.67;;
20844;SDS011;10583;49.084;8.646;2023-06-14T09:36:03;3.58;;;3.58;;
20844;SDS011;10583;49.084;8.646;2023-06-14T09:38:30;3.40;;;3.40;;
20844;SDS011;10583;49.084;8.646;2023-06-14T09:40:57;3.88;;;3.88;;
20844;SDS011;10583;49.084;8.646;2023-06-14T09:43:26;3.28;;;3.28;;
20844;SDS011;10583;49.084;8.646;2023-06-14T09:45:53;3.10;;;3.10;;
20844;SDS011;10583;49.084;8.646;2023-06-14T09:48:20;3.28;;;3.28;;
20844;SDS011;10583;49.084;8.646;2023-06-14T09:50:47;3.70;;;3.70;;
20844;SDS011;10583;49.084;8.646;2023-06-14T09:53:17;3.38;;;3.38;;
20844;SDS011;10583;49.084;8.646;2023-06-14T09:55:49;3.38;;;3.38;;
20844;SDS011;10583;49.084;8.646;2023-06-14T09:58:16;3.60;;;3.60;;
20844;SDS011;10583;49.084;8.646;2023-06-14T10:00:46;3.45;;;3.45;;
20844;SDS011;10583;49.084;8.646;2023-06-14T10:03:19;3.90;;;3.90;;
20844;SDS011;10583;49.084;8.646;2023-06-14T10:05:50;3.55;;;3.55;;
20844;SDS011;10583;49.084;8.646;2023-06-14T10:08:17;3.15;;;3.15;;
20844;SDS011;10583;49.084;8.646;2023-06-14T10:10:45;3.00;;;3.00;;
20844;SDS011;10583;49.084;8.646;2023-06-14T10:13:12;3.50;;;3.50;;
20844;SDS011;10583;49.084;8.646;2023-06-14T10:15:41;3.70;;;3.70;;
20844;SDS011;10583;49.084;8.646;2023-06-14T10:18:17;3.70;;;3.70;;
20844;SDS011;10583;49.084;8.646;2023-06-14T10:20:52;3.30;;;3.30;;
20844;SDS011;10583;49.084;8.646;2023-06-14T10:23:26;3.58;;;3.58;;
20844;SDS011;10583;49.084;8.646;2023-06-14T10:25:56;3.15;;;3.15;;
20844;SDS011;10583;49.084;8.646;2023-06-14T10:28:25;3.17;;;3.17;;
20844;SDS011;10583;49.084;8.646;2023-06-14T10:31:01;3.60;;;3.60;;
20844;SDS011;10583;49.084;8.646;2023-06-14T10:33:31;3.60;;;3.60;;
20844;SDS011;10583;49.084;8.646;2023-06-14T10:36:24;3.25;;;3.25;;
20844;SDS011;10583;49.084;8.646;2023-06-14T10:38:59;3.53;;;3.53;;
20844;SDS011;10583;49.084;8.646;2023-06-14T10:41:27;3.42;;;3.42;;
20844;SDS011;10583;49.084;8.646;2023-06-14T10:44:10;3.05;;;3.05;;
20844;SDS011;10583;49.084;8.646;2023-06-14T10:46:57;3.50;;;3.50;;
20844;SDS011;10583;49.084;8.646;2023-06-14T10:49:37;3.30;;;3.30;;
20844;SDS011;10583;49.084;8.646;2023-06-14T10:52:07;3.28;;;3.28;;
20844;SDS011;10583;49.084;8.646;2023-06-14T10:57:34;3.40;;;3.40;;
20844;SDS011;10583;49.084;8.646;2023-06-14T11:00:02;3.40;;;3.40;;
20844;SDS011;10583;49.084;8.646;2023-06-14T11:05:51;3.20;;;3.20;;
20844;SDS011;10583;49.084;8.646;2023-06-14T11:08:40;3.63;;;3.63;;
20844;SDS011;10583;49.084;8.646;2023-06-14T11:11:42;4.00;;;4.00;;
20844;SDS011;10583;49.084;8.646;2023-06-14T11:14:09;3.65;;;3.65;;
20844;SDS011;10583;49.084;8.646;2023-06-14T11:16:36;3.78;;;3.78;;
20844;SDS011;10583;49.084;8.646;2023-06-14T11:19:03;3.67;;;3.67;;
20844;SDS011;10583;49.084;8.646;2023-06-14T11:21:31;4.28;;;4.28;;
20844;SDS011;10583;49.084;8.646;2023-06-14T11:23:59;3.28;;;3.28;;
20844;SDS011;10583;49.084;8.646;2023-06-14T11:26:26;3.47;;;3.47;;
20844;SDS011;10583;49.084;8.646;2023-06-14T11:28:57;3.45;;;3.45;;
20844;SDS011;10583;49.084;8.646;2023-06-14T11:31:24;3.40;;;3.40;;
20844;SDS011;10583;49.084;8.646;2023-06-14T11:33:53;3.42;;;3.42;;
20844;SDS011;10583;49.084;8.646;2023-06-14T11:36:19;3.58;;;3.58;;
20844;SDS011;10583;49.084;8.646;2023-06-14T11:38:48;3.85;;;3.85;;
20844;SDS011;10583;49.084;8.646;2023-06-14T11:41:15;3.45;;;3.45;;
20844;SDS011;10583;49.084;8.646;2023-06-14T11:43:42;3.53;;;3.53;;
20844;SDS011;10583;49.084;8.646;2023-06-14T11:46:12;3.60;;;3.60;;
20844;SDS011;10583;49.084;8.646;2023-06-14T11:48:41;3.30;;;3.30;;
20844;SDS011;10583;49.084;8.646;2023-06-14T11:51:08;3.35;;;3.35;;
20844;SDS011;10583;49.084;8.646;2023-06-14T11:53:36;3.33;;;3.33;;
20844;SDS011;10583;49.084;8.646;2023-06-14T11:56:04;3.05;;;3.05;;
20844;SDS011;10583;49.084;8.646;2023-06-14T11:58:31;3.17;;;3.17;;
20844;SDS011;10583;49.084;8.646;2023-06-14T12:00:58;2.95;;;2.95;;
20844;SDS011;10583;49.084;8.646;2023-06-14T12:03:25;3.30;;;3.30;;
20844;SDS011;10583;49.084;8.646;2023-06-14T12:06:01;3.75;;;3.75;;
20844;SDS011;10583;49.084;8.646;2023-06-14T12:08:32;3.53;;;3.53;;
20844;SDS011;10583;49.084;8.646;2023-06-14T12:11:06;3.47;;;3.47;;
20844;SDS011;10583;49.084;8.646;2023-06-14T12:13:34;3.45;;;3.45;;
20844;SDS011;10583;49.084;8.646;2023-06-14T12:16:03;3.03;;;3.03;;
20844;SDS011;10583;49.084;8.646;2023-06-14T12:18:34;3.17;;;3.17;;
20844;SDS011;10583;49.084;8.646;2023-06-14T12:21:01;3.30;;;3.30;;
20844;SDS011;10583;49.084;8.646;2023-06-14T12:23:44;2.63;;;2.63;;
20844;SDS011;10583;49.084;8.646;2023-06-14T12:26:13;3.28;;;3.28;;
20844;SDS011;10583;49.084;8.646;2023-06-14T12:28:41;3.08;;;3.08;;
20844;SDS011;10583;49.084;8.646;2023-06-14T12:31:08;3.60;;;3.60;;
20844;SDS011;10583;49.084;8.646;2023-06-14T12:33:35;3.20;;;3.20;;
20844;SDS011;10583;49.084;8.646;2023-06-14T12:36:03;3.05;;;3.05;;
20844;SDS011;10583;49.084;8.646;2023-06-14T12:38:30;2.90;;;2.90;;
20844;SDS011;10583;49.084;8.646;2023-06-14T12:40:57;3.55;;;3.55;;
20844;SDS011;10583;49.084;8.646;2023-06-14T12:43:25;3.10;;;3.10;;
20844;SDS011;10583;49.084;8.646;2023-06-14T12:45:52;3.08;;;3.08;;
20844;SDS011;10583;49.084;8.646;2023-06-14T12:48:19;2.95;;;2.95;;
20844;SDS011;10583;49.084;8.646;2023-06-14T12:50:46;3.25;;;3.25;;
20844;SDS011;10583;49.084;8.646;2023-06-14T12:53:13;3.03;;;3.03;;
20844;SDS011;10583;49.084;8.646;2023-06-14T12:55:40;2.90;;;2.90;;
20844;SDS011;10583;49.084;8.646;2023-06-14T12:58:06;3.00;;;3.00;;
20844;SDS011;10583;49.084;8.646;2023-06-14T13:00:35;2.95;;;2.95;;
20844;SDS011;10583;49.084;8.646;2023-06-14T13:03:01;2.97;;;2.97;;
20844;SDS011;10583;49.084;8.646;2023-06-14T13:05:28;2.80;;;2.80;;
20844;SDS011;10583;49.084;8.646;2023-06-14T13:07:56;3.00;;;3.00;;
20844;SDS011;10583;49.084;8.646;2023-06-14T13:10:23;2.60;;;2.60;;
20844;SDS011;10583;49.084;8.646;2023-06-14T13:12:50;2.95;;;2.95;;
20844;SDS011;10583;49.084;8.646;2023-06-14T13:15:16;2.97;;;2.97;;
20844;SDS011;10583;49.084;8.646;2023-06-14T13:17:44;2.90;;;2.90;;
20844;SDS011;10583;49.084;8.646;2023-06-14T13:20:13;3.00;;;3.00;;
20844;SDS011;10583;49.084;8.646;2023-06-14T13:22:41;2.85;;;2.85;;
20844;SDS011;10583;49.084;8.646;2023-06-14T13:25:07;2.92;;;2.92;;
20844;SDS011;10583;49.084;8.646;2023-06-14T13:27:34;3.10;;;3.10;;
20844;SDS011;10583;49.084;8.646;2023-06-14T13:30:01;2.67;;;2.67;;
20844;SDS011;10583;49.084;8.646;2023-06-14T13:32:30;3.33;;;3.33;;
20844;SDS011;10583;49.084;8.646;2023-06-14T13:34:58;2.72;;;2.72;;
20844;SDS011;10583;49.084;8.646;2023-06-14T13:37:25;2.78;;;2.78;;
20844;SDS011;10583;49.084;8.646;2023-06-14T13:39:52;2.85;;;2.85;;
20844;SDS011;10583;49.084;8.646;2023-06-14T13:42:19;2.88;;;2.88;;
20844;SDS011;10583;49.084;8.646;2023-06-14T13:44:46;2.70;;;2.70;;
20844;SDS011;10583;49.084;8.646;2023-06-14T13:47:12;3.05;;;3.05;;
20844;SDS011;10583;49.084;8.646;2023-06-14T13:49:39;2.72;;;2.72;;
20844;SDS011;10583;49.084;8.646;2023-06-14T13:52:07;3.35;;;3.35;;
20844;SDS011;10583;49.084;8.646;2023-06-14T13:54:34;2.90;;;2.90;;
20844;SDS011;10583;49.084;8.646;2023-06-14T13:57:01;3.10;;;3.10;;
20844;SDS011;10583;49.084;8.646;2023-06-14T13:59:28;2.70;;;2.70;;
20844;SDS011;10583;49.084;8.646;2023-06-14T14:01:56;2.65;;;2.65;;
20844;SDS011;10583;49.084;8.646;2023-06-14T14:04:22;2.90;;;2.90;;
20844;SDS011;10583;49.084;8.646;2023-06-14T14:06:49;2.80;;;2.80;;
20844;SDS011;10583;49.084;8.646;2023-06-14T14:09:17;2.70;;;2.70;;
20844;SDS011;10583;49.084;8.646;2023-06-14T14:11:44;2.80;;;2.80;;
20844;SDS011;10583;49.084;8.646;2023-06-14T14:14:10;2.95;;;2.95;;
20844;SDS011;10583;49.084;8.646;2023-06-14T14:16:37;2.83;;;2.83;;
20844;SDS011;10583;49.084;8.646;2023-06-14T14:19:04;3.20;;;3.20;;
20844;SDS011;10583;49.084;8.646;2023-06-14T14:21:30;2.60;;;2.60;;
20844;SDS011;10583;49.084;8.646;2023-06-14T14:23:57;3.22;;;3.22;;
20844;SDS011;10583;49.084;8.646;2023-06-14T14:26:25;3.10;;;3.10;;
20844;SDS011;10583;49.084;8.646;2023-06-14T14:28:52;3.42;;;3.42;;
20844;SDS011;10583;49.084;8.646;2023-06-14T14:31:19;2.90;;;2.90;;
20844;SDS011;10583;49.084;8.646;2023-06-14T14:33:46;2.67;;;2.67;;
20844;SDS011;10583;49.084;8.646;2023-06-14T14:36:12;3.40;;;3.40;;
20844;SDS011;10583;49.084;8.646;2023-06-14T14:38:39;3.25;;;3.25;;
20844;SDS011;10583;49.084;8.646;2023-06-14T14:41:06;3.05;;;3.05;;
20844;SDS011;10583;49.084;8.646;2023-06-14T14:43:34;2.45;;;2.45;;
20844;SDS011;10583;49.084;8.646;2023-06-14T14:46:00;3.13;;;3.13;;
20844;SDS011;10583;49.084;8.646;2023-06-14T14:48:27;2.90;;;2.90;;
20844;SDS011;10583;49.084;8.646;2023-06-14T14:50:54;2.97;;;2.97;;
20844;SDS011;10583;49.084;8.646;2023-06-14T14:53:20;2.78;;;2.78;;
20844;SDS011;10583;49.084;8.646;2023-06-14T14:55:47;3.00;;;3.00;;
20844;SDS011;10583;49.084;8.646;2023-06-14T14:58:14;2.95;;;2.95;;
20844;SDS011;10583;49.084;8.646;2023-06-14T15:00:44;3.00;;;3.00;;